sensor_id;sensor_type;location;lat;lon;timestamp;temperature;humidity
57709;SHT35;42558;52.388;13.390;2023-09-12T00:00:44;16.39;82.10
57709;SHT35;42558;52.388;13.390;2023-09-12T00:03:18;16.36;82.23
57709;SHT35;42558;52.388;13.390;2023-09-12T00:05:54;16.34;82.36
57709;SHT35;42558;52.388;13.390;2023-09-12T00:08:27;16.31;82.30
57709;SHT35;42558;52.388;13.390;2023-09-12T00:13:41;16.27;82.53
57709;SHT35;42558;52.388;13.390;2023-09-12T00:16:11;16.26;82.56
57709;SHT35;42558;52.388;13.390;2023-09-12T00:18:41;16.24;82.48
57709;SHT35;42558;52.388;13.390;2023-09-12T00:21:12;16.19;82.57
57709;SHT35;42558;52.388;13.390;2023-09-12T00:23:42;16.17;82.46
57709;SHT35;42558;52.388;13.390;2023-09-12T00:26:12;16.17;82.49
57709;SHT35;42558;52.388;13.390;2023-09-12T00:28:42;16.14;82.53
57709;SHT35;42558;52.388;13.390;2023-09-12T00:31:10;16.13;82.60
57709;SHT35;42558;52.388;13.390;2023-09-12T00:33:39;16.09;82.60
57709;SHT35;42558;52.388;13.390;2023-09-12T00:36:07;16.06;82.74
57709;SHT35;42558;52.388;13.390;2023-09-12T00:38:36;16.04;82.95
57709;SHT35;42558;52.388;13.390;2023-09-12T00:41:04;16.02;83.01
57709;SHT35;42558;52.388;13.390;2023-09-12T00:43:33;16.00;82.92
57709;SHT35;42558;52.388;13.390;2023-09-12T00:46:01;15.99;83.08
57709;SHT35;42558;52.388;13.390;2023-09-12T00:48:29;15.97;83.13
57709;SHT35;42558;52.388;13.390;2023-09-12T00:51:01;15.96;83.19
57709;SHT35;42558;52.388;13.390;2023-09-12T00:53:29;15.94;83.21
57709;SHT35;42558;52.388;13.390;2023-09-12T00:55:58;15.90;83.21
57709;SHT35;42558;52.388;13.390;2023-09-12T00:58:26;15.89;83.29
57709;SHT35;42558;52.388;13.390;2023-09-12T01:00:55;15.85;83.29
57709;SHT35;42558;52.388;13.390;2023-09-12T01:03:26;15.84;83.37
57709;SHT35;42558;52.388;13.390;2023-09-12T01:05:57;15.82;83.40
57709;SHT35;42558;52.388;13.390;2023-09-12T01:08:29;15.80;83.38
57709;SHT35;42558;52.388;13.390;2023-09-12T01:10:59;15.78;83.53
57709;SHT35;42558;52.388;13.390;2023-09-12T01:13:29;15.76;83.68
57709;SHT35;42558;52.388;13.390;2023-09-12T01:15:59;15.73;83.68
57709;SHT35;42558;52.388;13.390;2023-09-12T01:18:29;15.73;83.83
57709;SHT35;42558;52.388;13.390;2023-09-12T01:27:32;15.68;83.66
57709;SHT35;42558;52.388;13.390;2023-09-12T01:30:08;15.66;83.63
57709;SHT35;42558;52.388;13.390;2023-09-12T01:32:40;15.66;83.71
57709;SHT35;42558;52.388;13.390;2023-09-12T01:35:10;15.66;83.80
57709;SHT35;42558;52.388;13.390;2023-09-12T01:37:40;15.64;83.87
57709;SHT35;42558;52.388;13.390;2023-09-12T01:40:10;15.63;83.86
57709;SHT35;42558;52.388;13.390;2023-09-12T01:42:45;15.61;83.90
57709;SHT35;42558;52.388;13.390;2023-09-12T01:45:17;15.59;83.99
57709;SHT35;42558;52.388;13.390;2023-09-12T01:47:51;15.56;84.06
57709;SHT35;42558;52.388;13.390;2023-09-12T01:50:20;15.53;84.13
57709;SHT35;42558;52.388;13.390;2023-09-12T01:52:48;15.52;84.23
57709;SHT35;42558;52.388;13.390;2023-09-12T01:55:17;15.51;84.28
57709;SHT35;42558;52.388;13.390;2023-09-12T01:57:48;15.51;84.21
57709;SHT35;42558;52.388;13.390;2023-09-12T02:00:17;15.50;84.18
57709;SHT35;42558;52.388;13.390;2023-09-12T02:02:49;15.48;84.19
57709;SHT35;42558;52.388;13.390;2023-09-12T02:05:20;15.48;84.26
57709;SHT35;42558;52.388;13.390;2023-09-12T02:07:51;15.49;84.38
57709;SHT35;42558;52.388;13.390;2023-09-12T02:10:21;15.47;84.40
57709;SHT35;42558;52.388;13.390;2023-09-12T02:12:50;15.42;84.40
57709;SHT35;42558;52.388;13.390;2023-09-12T02:15:18;15.40;84.43
57709;SHT35;42558;52.388;13.390;2023-09-12T02:17:47;15.39;84.40
57709;SHT35;42558;52.388;13.390;2023-09-12T02:20:18;15.38;84.30
57709;SHT35;42558;52.388;13.390;2023-09-12T02:22:49;15.36;84.31
57709;SHT35;42558;52.388;13.390;2023-09-12T02:25:19;15.35;84.40
57709;SHT35;42558;52.388;13.390;2023-09-12T02:27:49;15.35;84.44
57709;SHT35;42558;52.388;13.390;2023-09-12T02:30:19;15.33;84.37
57709;SHT35;42558;52.388;13.390;2023-09-12T02:32:49;15.33;84.53
57709;SHT35;42558;52.388;13.390;2023-09-12T02:35:18;15.33;84.62
57709;SHT35;42558;52.388;13.390;2023-09-12T02:37:48;15.32;84.71
57709;SHT35;42558;52.388;13.390;2023-09-12T02:40:18;15.29;84.63
57709;SHT35;42558;52.388;13.390;2023-09-12T02:42:48;15.27;84.60
57709;SHT35;42558;52.388;13.390;2023-09-12T02:45:18;15.26;84.80
57709;SHT35;42558;52.388;13.390;2023-09-12T02:47:48;15.24;84.99
57709;SHT35;42558;52.388;13.390;2023-09-12T02:50:18;15.20;84.91
57709;SHT35;42558;52.388;13.390;2023-09-12T02:52:48;15.18;84.91
57709;SHT35;42558;52.388;13.390;2023-09-12T02:55:18;15.17;84.99
57709;SHT35;42558;52.388;13.390;2023-09-12T02:57:47;15.14;85.02
57709;SHT35;42558;52.388;13.390;2023-09-12T03:00:18;15.13;85.13
57709;SHT35;42558;52.388;13.390;2023-09-12T03:02:49;15.14;85.28
57709;SHT35;42558;52.388;13.390;2023-09-12T03:05:19;15.12;85.39
57709;SHT35;42558;52.388;13.390;2023-09-12T03:07:49;15.13;85.49
57709;SHT35;42558;52.388;13.390;2023-09-12T03:10:19;15.10;85.50
57709;SHT35;42558;52.388;13.390;2023-09-12T03:12:49;15.07;85.37
57709;SHT35;42558;52.388;13.390;2023-09-12T03:15:19;15.07;85.30
57709;SHT35;42558;52.388;13.390;2023-09-12T03:17:49;15.05;85.33
57709;SHT35;42558;52.388;13.390;2023-09-12T03:20:19;15.05;85.36
57709;SHT35;42558;52.388;13.390;2023-09-12T03:22:49;15.04;85.38
57709;SHT35;42558;52.388;13.390;2023-09-12T03:25:19;15.02;85.30
57709;SHT35;42558;52.388;13.390;2023-09-12T03:27:48;15.01;85.32
57709;SHT35;42558;52.388;13.390;2023-09-12T03:30:19;14.99;85.36
57709;SHT35;42558;52.388;13.390;2023-09-12T03:32:50;14.99;85.40
57709;SHT35;42558;52.388;13.390;2023-09-12T03:35:21;14.98;85.38
57709;SHT35;42558;52.388;13.390;2023-09-12T03:37:50;14.95;85.36
57709;SHT35;42558;52.388;13.390;2023-09-12T03:40:21;14.95;85.51
57709;SHT35;42558;52.388;13.390;2023-09-12T03:42:50;14.95;85.58
57709;SHT35;42558;52.388;13.390;2023-09-12T03:45:20;14.95;85.55
57709;SHT35;42558;52.388;13.390;2023-09-12T03:47:51;14.94;85.61
57709;SHT35;42558;52.388;13.390;2023-09-12T03:50:21;14.93;85.70
57709;SHT35;42558;52.388;13.390;2023-09-12T03:52:51;14.89;85.62
57709;SHT35;42558;52.388;13.390;2023-09-12T03:55:18;14.87;85.65
57709;SHT35;42558;52.388;13.390;2023-09-12T03:57:45;14.87;85.77
57709;SHT35;42558;52.388;13.390;2023-09-12T04:00:15;14.88;85.83
57709;SHT35;42558;52.388;13.390;2023-09-12T04:02:45;14.88;85.87
57709;SHT35;42558;52.388;13.390;2023-09-12T04:05:15;14.85;85.77
57709;SHT35;42558;52.388;13.390;2023-09-12T04:07:45;14.82;85.69
57709;SHT35;42558;52.388;13.390;2023-09-12T04:10:15;14.82;85.81
57709;SHT35;42558;52.388;13.390;2023-09-12T04:12:47;14.84;85.93
57709;SHT35;42558;52.388;13.390;2023-09-12T04:15:17;14.83;85.95
57709;SHT35;42558;52.388;13.390;2023-09-12T04:17:47;14.82;85.97
57709;SHT35;42558;52.388;13.390;2023-09-12T04:20:17;14.80;85.94
57709;SHT35;42558;52.388;13.390;2023-09-12T04:22:47;14.75;85.91
57709;SHT35;42558;52.388;13.390;2023-09-12T04:25:17;14.73;85.89
57709;SHT35;42558;52.388;13.390;2023-09-12T04:27:48;14.70;85.95
57709;SHT35;42558;52.388;13.390;2023-09-12T04:30:18;14.67;86.02
57709;SHT35;42558;52.388;13.390;2023-09-12T04:32:48;14.67;86.17
57709;SHT35;42558;52.388;13.390;2023-09-12T04:35:18;14.66;86.20
57709;SHT35;42558;52.388;13.390;2023-09-12T04:37:49;14.65;86.07
57709;SHT35;42558;52.388;13.390;2023-09-12T04:40:19;14.63;86.03
57709;SHT35;42558;52.388;13.390;2023-09-12T04:42:49;14.61;86.03
57709;SHT35;42558;52.388;13.390;2023-09-12T04:45:19;14.61;85.96
57709;SHT35;42558;52.388;13.390;2023-09-12T04:47:48;14.62;86.11
57709;SHT35;42558;52.388;13.390;2023-09-12T04:50:18;14.63;86.11
57709;SHT35;42558;52.388;13.390;2023-09-12T04:52:48;14.64;86.10
57709;SHT35;42558;52.388;13.390;2023-09-12T04:55:18;14.67;86.20
57709;SHT35;42558;52.388;13.390;2023-09-12T04:57:48;14.71;86.15
57709;SHT35;42558;52.388;13.390;2023-09-12T05:00:18;14.75;86.17
57709;SHT35;42558;52.388;13.390;2023-09-12T05:02:48;14.78;86.20
57709;SHT35;42558;52.388;13.390;2023-09-12T05:05:18;14.84;86.35
57709;SHT35;42558;52.388;13.390;2023-09-12T05:07:48;14.89;86.43
57709;SHT35;42558;52.388;13.390;2023-09-12T05:10:20;14.95;86.37
57709;SHT35;42558;52.388;13.390;2023-09-12T05:12:50;14.99;86.36
57709;SHT35;42558;52.388;13.390;2023-09-12T05:15:20;15.06;86.40
57709;SHT35;42558;52.388;13.390;2023-09-12T05:17:50;15.12;86.39
57709;SHT35;42558;52.388;13.390;2023-09-12T05:20:20;15.21;86.38
57709;SHT35;42558;52.388;13.390;2023-09-12T05:22:50;15.28;86.30
57709;SHT35;42558;52.388;13.390;2023-09-12T05:25:19;15.35;86.27
57709;SHT35;42558;52.388;13.390;2023-09-12T05:27:49;15.41;86.30
57709;SHT35;42558;52.388;13.390;2023-09-12T05:30:19;15.48;86.21
57709;SHT35;42558;52.388;13.390;2023-09-12T05:32:49;15.55;86.14
57709;SHT35;42558;52.388;13.390;2023-09-12T05:35:19;15.62;86.07
57709;SHT35;42558;52.388;13.390;2023-09-12T05:37:51;15.71;86.10
57709;SHT35;42558;52.388;13.390;2023-09-12T05:40:19;15.78;86.03
57709;SHT35;42558;52.388;13.390;2023-09-12T05:42:48;15.84;85.88
57709;SHT35;42558;52.388;13.390;2023-09-12T05:45:16;15.89;85.74
57709;SHT35;42558;52.388;13.390;2023-09-12T05:47:45;15.98;85.72
57709;SHT35;42558;52.388;13.390;2023-09-12T05:50:13;16.09;85.65
57709;SHT35;42558;52.388;13.390;2023-09-12T05:52:41;16.23;85.52
57709;SHT35;42558;52.388;13.390;2023-09-12T05:55:13;16.35;85.17
57709;SHT35;42558;52.388;13.390;2023-09-12T05:57:41;16.49;84.87
57709;SHT35;42558;52.388;13.390;2023-09-12T06:00:10;16.62;84.59
57709;SHT35;42558;52.388;13.390;2023-09-12T06:02:40;16.73;84.19
57709;SHT35;42558;52.388;13.390;2023-09-12T06:05:10;16.83;83.89
57709;SHT35;42558;52.388;13.390;2023-09-12T06:07:40;16.92;83.38
57709;SHT35;42558;52.388;13.390;2023-09-12T06:10:10;17.09;83.39
57709;SHT35;42558;52.388;13.390;2023-09-12T06:12:39;17.32;83.02
57709;SHT35;42558;52.388;13.390;2023-09-12T06:15:08;17.52;82.41
57709;SHT35;42558;52.388;13.390;2023-09-12T06:17:38;17.71;81.65
57709;SHT35;42558;52.388;13.390;2023-09-12T06:20:09;17.93;80.38
57709;SHT35;42558;52.388;13.390;2023-09-12T06:22:41;18.15;78.74
57709;SHT35;42558;52.388;13.390;2023-09-12T06:25:12;18.26;77.10
57709;SHT35;42558;52.388;13.390;2023-09-12T06:27:42;18.50;76.22
57709;SHT35;42558;52.388;13.390;2023-09-12T06:30:13;18.78;76.06
57709;SHT35;42558;52.388;13.390;2023-09-12T06:32:43;18.85;73.99
57709;SHT35;42558;52.388;13.390;2023-09-12T06:35:13;18.94;73.87
57709;SHT35;42558;52.388;13.390;2023-09-12T06:37:43;19.07;74.25
57709;SHT35;42558;52.388;13.390;2023-09-12T06:40:13;19.33;74.44
57709;SHT35;42558;52.388;13.390;2023-09-12T06:42:43;19.58;73.36
57709;SHT35;42558;52.388;13.390;2023-09-12T06:45:14;19.65;72.81
57709;SHT35;42558;52.388;13.390;2023-09-12T06:47:44;19.76;73.27
57709;SHT35;42558;52.388;13.390;2023-09-12T06:50:14;20.03;72.37
57709;SHT35;42558;52.388;13.390;2023-09-12T06:52:44;20.32;70.90
57709;SHT35;42558;52.388;13.390;2023-09-12T06:55:14;20.42;70.28
57709;SHT35;42558;52.388;13.390;2023-09-12T06:57:44;20.54;70.82
57709;SHT35;42558;52.388;13.390;2023-09-12T07:00:16;20.86;70.34
57709;SHT35;42558;52.388;13.390;2023-09-12T07:02:47;21.11;68.05
57709;SHT35;42558;52.388;13.390;2023-09-12T07:05:17;21.42;67.55
57709;SHT35;42558;52.388;13.390;2023-09-12T07:07:47;21.77;67.57
57709;SHT35;42558;52.388;13.390;2023-09-12T07:10:16;22.01;66.83
57709;SHT35;42558;52.388;13.390;2023-09-12T07:12:53;22.20;66.47
57709;SHT35;42558;52.388;13.390;2023-09-12T07:15:23;22.28;66.26
57709;SHT35;42558;52.388;13.390;2023-09-12T07:17:53;22.49;64.69
57709;SHT35;42558;52.388;13.390;2023-09-12T07:20:25;22.90;64.95
57709;SHT35;42558;52.388;13.390;2023-09-12T07:22:53;23.23;63.07
57709;SHT35;42558;52.388;13.390;2023-09-12T07:25:22;23.55;61.69
57709;SHT35;42558;52.388;13.390;2023-09-12T07:27:50;23.75;62.09
57709;SHT35;42558;52.388;13.390;2023-09-12T07:30:19;24.07;60.73
57709;SHT35;42558;52.388;13.390;2023-09-12T07:32:47;24.37;60.03
57709;SHT35;42558;52.388;13.390;2023-09-12T07:35:15;24.41;59.02
57709;SHT35;42558;52.388;13.390;2023-09-12T07:37:44;24.37;60.34
57709;SHT35;42558;52.388;13.390;2023-09-12T07:40:12;24.66;59.42
57709;SHT35;42558;52.388;13.390;2023-09-12T07:42:41;24.86;57.90
57709;SHT35;42558;52.388;13.390;2023-09-12T07:45:09;24.98;59.23
57709;SHT35;42558;52.388;13.390;2023-09-12T07:47:37;25.32;56.84
57709;SHT35;42558;52.388;13.390;2023-09-12T07:50:06;25.61;56.80
57709;SHT35;42558;52.388;13.390;2023-09-12T07:52:34;25.83;55.34
57709;SHT35;42558;52.388;13.390;2023-09-12T07:55:03;25.95;58.45
57709;SHT35;42558;52.388;13.390;2023-09-12T07:57:31;26.10;58.94
57709;SHT35;42558;52.388;13.390;2023-09-12T08:00:00;26.45;57.85
57709;SHT35;42558;52.388;13.390;2023-09-12T08:02:31;26.44;57.51
57709;SHT35;42558;52.388;13.390;2023-09-12T12:17:19;28.61;53.61
57709;SHT35;42558;52.388;13.390;2023-09-12T12:19:49;28.82;53.92
57709;SHT35;42558;52.388;13.390;2023-09-12T12:22:19;28.98;53.07
57709;SHT35;42558;52.388;13.390;2023-09-12T12:24:48;29.11;53.57
57709;SHT35;42558;52.388;13.390;2023-09-12T12:27:19;29.32;53.05
57709;SHT35;42558;52.388;13.390;2023-09-12T12:29:47;29.29;52.30
57709;SHT35;42558;52.388;13.390;2023-09-12T12:32:16;29.22;52.25
57709;SHT35;42558;52.388;13.390;2023-09-12T12:34:48;28.90;52.38
57709;SHT35;42558;52.388;13.390;2023-09-12T12:37:38;28.87;52.00
57709;SHT35;42558;52.388;13.390;2023-09-12T12:40:12;28.90;52.36
57709;SHT35;42558;52.388;13.390;2023-09-12T12:42:43;29.01;53.11
57709;SHT35;42558;52.388;13.390;2023-09-12T12:45:23;29.18;52.57
57709;SHT35;42558;52.388;13.390;2023-09-12T12:47:58;29.18;51.69
57709;SHT35;42558;52.388;13.390;2023-09-12T12:50:34;29.12;51.87
57709;SHT35;42558;52.388;13.390;2023-09-12T12:53:05;29.13;52.15
57709;SHT35;42558;52.388;13.390;2023-09-12T12:55:34;29.00;52.00
57709;SHT35;42558;52.388;13.390;2023-09-12T12:58:05;28.86;52.04
57709;SHT35;42558;52.388;13.390;2023-09-12T13:00:33;28.88;52.53
57709;SHT35;42558;52.388;13.390;2023-09-12T13:03:02;29.03;52.34
57709;SHT35;42558;52.388;13.390;2023-09-12T13:05:30;29.09;52.10
57709;SHT35;42558;52.388;13.390;2023-09-12T13:07:59;29.09;52.27
57709;SHT35;42558;52.388;13.390;2023-09-12T13:10:27;29.05;51.96
57709;SHT35;42558;52.388;13.390;2023-09-12T13:12:55;29.07;51.41
57709;SHT35;42558;52.388;13.390;2023-09-12T13:15:24;29.06;51.82
57709;SHT35;42558;52.388;13.390;2023-09-12T13:17:52;28.94;51.36
57709;SHT35;42558;52.388;13.390;2023-09-12T13:20:21;29.00;51.70
57709;SHT35;42558;52.388;13.390;2023-09-12T13:22:49;29.08;51.57
57709;SHT35;42558;52.388;13.390;2023-09-12T13:25:17;29.03;50.41
57709;SHT35;42558;52.388;13.390;2023-09-12T13:27:46;29.02;50.99
57709;SHT35;42558;52.388;13.390;2023-09-12T13:30:14;28.93;51.57
57709;SHT35;42558;52.388;13.390;2023-09-12T13:32:43;28.96;51.56
57709;SHT35;42558;52.388;13.390;2023-09-12T13:35:15;29.02;50.17
57709;SHT35;42558;52.388;13.390;2023-09-12T13:37:44;29.04;50.42
57709;SHT35;42558;52.388;13.390;2023-09-12T13:40:12;29.02;50.13
57709;SHT35;42558;52.388;13.390;2023-09-12T13:42:41;28.90;50.51
57709;SHT35;42558;52.388;13.390;2023-09-12T13:45:12;28.99;51.45
57709;SHT35;42558;52.388;13.390;2023-09-12T13:47:41;29.08;50.37
57709;SHT35;42558;52.388;13.390;2023-09-12T13:50:12;29.19;50.01
57709;SHT35;42558;52.388;13.390;2023-09-12T13:52:42;29.31;49.48
57709;SHT35;42558;52.388;13.390;2023-09-12T13:55:12;29.35;49.97
57709;SHT35;42558;52.388;13.390;2023-09-12T13:58:05;29.28;49.48
57709;SHT35;42558;52.388;13.390;2023-09-12T14:00:38;29.50;50.66
57709;SHT35;42558;52.388;13.390;2023-09-12T14:03:08;29.35;49.79
57709;SHT35;42558;52.388;13.390;2023-09-12T14:05:39;29.35;50.19
57709;SHT35;42558;52.388;13.390;2023-09-12T14:08:11;29.44;49.31
57709;SHT35;42558;52.388;13.390;2023-09-12T14:10:42;29.36;48.56
57709;SHT35;42558;52.388;13.390;2023-09-12T14:13:13;29.43;50.23
57709;SHT35;42558;52.388;13.390;2023-09-12T14:15:49;29.39;49.32
57709;SHT35;42558;52.388;13.390;2023-09-12T14:18:24;29.28;48.96
57709;SHT35;42558;52.388;13.390;2023-09-12T14:20:55;29.41;49.92
57709;SHT35;42558;52.388;13.390;2023-09-12T14:23:24;29.32;48.93
57709;SHT35;42558;52.388;13.390;2023-09-12T14:25:55;29.15;49.18
57709;SHT35;42558;52.388;13.390;2023-09-12T14:28:22;29.24;51.89
57709;SHT35;42558;52.388;13.390;2023-09-12T14:30:51;29.26;50.19
57709;SHT35;42558;52.388;13.390;2023-09-12T14:33:22;29.41;49.11
57709;SHT35;42558;52.388;13.390;2023-09-12T14:35:50;29.68;49.31
57709;SHT35;42558;52.388;13.390;2023-09-12T14:38:19;29.91;49.59
57709;SHT35;42558;52.388;13.390;2023-09-12T14:40:47;30.04;49.28
57709;SHT35;42558;52.388;13.390;2023-09-12T14:43:15;29.92;48.28
57709;SHT35;42558;52.388;13.390;2023-09-12T14:45:44;29.87;48.39
57709;SHT35;42558;52.388;13.390;2023-09-12T14:48:12;29.68;49.17
57709;SHT35;42558;52.388;13.390;2023-09-12T14:50:41;29.52;51.08
57709;SHT35;42558;52.388;13.390;2023-09-12T14:53:12;29.33;52.69
57709;SHT35;42558;52.388;13.390;2023-09-12T14:55:41;29.40;50.75
57709;SHT35;42558;52.388;13.390;2023-09-12T14:58:09;29.59;50.42
57709;SHT35;42558;52.388;13.390;2023-09-12T15:00:37;29.72;50.06
57709;SHT35;42558;52.388;13.390;2023-09-12T15:03:06;29.88;50.31
57709;SHT35;42558;52.388;13.390;2023-09-12T15:05:34;29.40;52.65
57709;SHT35;42558;52.388;13.390;2023-09-12T15:08:03;28.62;55.70
57709;SHT35;42558;52.388;13.390;2023-09-12T15:10:36;28.50;56.81
57709;SHT35;42558;52.388;13.390;2023-09-12T15:13:06;28.49;57.11
57709;SHT35;42558;52.388;13.390;2023-09-12T15:15:36;28.46;57.15
57709;SHT35;42558;52.388;13.390;2023-09-12T15:18:06;28.11;56.24
57709;SHT35;42558;52.388;13.390;2023-09-12T15:20:36;27.75;56.25
57709;SHT35;42558;52.388;13.390;2023-09-12T15:23:06;27.58;57.16
57709;SHT35;42558;52.388;13.390;2023-09-12T15:25:36;27.65;56.72
57709;SHT35;42558;52.388;13.390;2023-09-12T15:28:06;27.45;57.11
57709;SHT35;42558;52.388;13.390;2023-09-12T15:30:37;27.41;57.13
57709;SHT35;42558;52.388;13.390;2023-09-12T15:33:07;26.99;57.89
57709;SHT35;42558;52.388;13.390;2023-09-12T15:35:38;26.74;58.60
57709;SHT35;42558;52.388;13.390;2023-09-12T15:38:08;26.59;59.11
57709;SHT35;42558;52.388;13.390;2023-09-12T15:40:38;26.49;59.46
57709;SHT35;42558;52.388;13.390;2023-09-12T15:43:08;26.36;59.78
57709;SHT35;42558;52.388;13.390;2023-09-12T15:45:52;26.18;60.37
57709;SHT35;42558;52.388;13.390;2023-09-12T15:48:22;26.18;60.79
57709;SHT35;42558;52.388;13.390;2023-09-12T15:50:53;26.27;60.85
57709;SHT35;42558;52.388;13.390;2023-09-12T15:53:24;26.42;60.31
57709;SHT35;42558;52.388;13.390;2023-09-12T15:55:54;26.51;60.03
57709;SHT35;42558;52.388;13.390;2023-09-12T15:58:24;26.50;60.01
57709;SHT35;42558;52.388;13.390;2023-09-12T16:00:56;26.51;59.83
57709;SHT35;42558;52.388;13.390;2023-09-12T16:03:27;26.60;59.53
57709;SHT35;42558;52.388;13.390;2023-09-12T16:05:55;26.60;59.82
57709;SHT35;42558;52.388;13.390;2023-09-12T16:08:24;26.53;59.69
57709;SHT35;42558;52.388;13.390;2023-09-12T16:10:52;26.44;60.03
57709;SHT35;42558;52.388;13.390;2023-09-12T16:13:21;26.36;60.29
57709;SHT35;42558;52.388;13.390;2023-09-12T16:15:49;26.22;60.54
57709;SHT35;42558;52.388;13.390;2023-09-12T16:18:18;26.17;60.83
57709;SHT35;42558;52.388;13.390;2023-09-12T16:20:46;26.09;60.22
57709;SHT35;42558;52.388;13.390;2023-09-12T16:23:14;26.06;60.70
57709;SHT35;42558;52.388;13.390;2023-09-12T16:25:43;25.96;61.24
57709;SHT35;42558;52.388;13.390;2023-09-12T16:28:11;25.82;60.77
57709;SHT35;42558;52.388;13.390;2023-09-12T16:30:40;25.72;60.55
57709;SHT35;42558;52.388;13.390;2023-09-12T16:33:11;25.66;60.33
57709;SHT35;42558;52.388;13.390;2023-09-12T16:35:39;25.60;60.38
57709;SHT35;42558;52.388;13.390;2023-09-12T16:38:08;25.55;60.36
57709;SHT35;42558;52.388;13.390;2023-09-12T16:40:37;25.45;60.31
57709;SHT35;42558;52.388;13.390;2023-09-12T16:43:08;25.39;60.03
57709;SHT35;42558;52.388;13.390;2023-09-12T16:45:38;25.34;60.03
57709;SHT35;42558;52.388;13.390;2023-09-12T16:48:06;25.33;59.90
57709;SHT35;42558;52.388;13.390;2023-09-12T16:50:35;25.24;59.81
57709;SHT35;42558;52.388;13.390;2023-09-12T16:53:03;25.18;59.75
57709;SHT35;42558;52.388;13.390;2023-09-12T16:55:31;25.13;59.80
57709;SHT35;42558;52.388;13.390;2023-09-12T16:58:00;25.11;59.69
57709;SHT35;42558;52.388;13.390;2023-09-12T17:00:28;25.05;59.82
57709;SHT35;42558;52.388;13.390;2023-09-12T17:02:57;25.04;60.02
57709;SHT35;42558;52.388;13.390;2023-09-12T17:05:25;24.99;60.15
57709;SHT35;42558;52.388;13.390;2023-09-12T17:07:53;24.94;60.42
57709;SHT35;42558;52.388;13.390;2023-09-12T17:10:22;24.82;60.70
57709;SHT35;42558;52.388;13.390;2023-09-12T17:12:50;24.78;60.70
57709;SHT35;42558;52.388;13.390;2023-09-12T17:15:19;24.74;60.95
57709;SHT35;42558;52.388;13.390;2023-09-12T17:17:47;24.66;61.05
57709;SHT35;42558;52.388;13.390;2023-09-12T17:20:16;24.60;60.94
57709;SHT35;42558;52.388;13.390;2023-09-12T17:22:44;24.58;61.06
57709;SHT35;42558;52.388;13.390;2023-09-12T17:25:12;24.51;61.42
57709;SHT35;42558;52.388;13.390;2023-09-12T17:27:41;24.38;61.80
57709;SHT35;42558;52.388;13.390;2023-09-12T17:30:09;24.32;61.62
57709;SHT35;42558;52.388;13.390;2023-09-12T17:32:38;24.30;61.74
57709;SHT35;42558;52.388;13.390;2023-09-12T17:35:06;24.24;62.25
57709;SHT35;42558;52.388;13.390;2023-09-12T17:37:35;24.11;62.55
57709;SHT35;42558;52.388;13.390;2023-09-12T17:40:03;24.07;62.78
57709;SHT35;42558;52.388;13.390;2023-09-12T17:42:39;23.96;62.99
57709;SHT35;42558;52.388;13.390;2023-09-12T17:45:09;23.90;62.84
57709;SHT35;42558;52.388;13.390;2023-09-12T17:47:39;23.90;62.80
57709;SHT35;42558;52.388;13.390;2023-09-12T17:50:09;23.83;63.24
57709;SHT35;42558;52.388;13.390;2023-09-12T17:52:39;23.72;63.79
57709;SHT35;42558;52.388;13.390;2023-09-12T17:55:09;23.62;63.99
57709;SHT35;42558;52.388;13.390;2023-09-12T17:57:40;23.54;65.08
57709;SHT35;42558;52.388;13.390;2023-09-12T18:00:10;23.31;65.91
57709;SHT35;42558;52.388;13.390;2023-09-12T18:02:40;23.20;66.01
57709;SHT35;42558;52.388;13.390;2023-09-12T18:05:10;23.19;65.45
57709;SHT35;42558;52.388;13.390;2023-09-12T18:07:40;23.22;65.79
57709;SHT35;42558;52.388;13.390;2023-09-12T18:10:10;23.14;66.18
57709;SHT35;42558;52.388;13.390;2023-09-12T18:12:40;23.04;66.51
57709;SHT35;42558;52.388;13.390;2023-09-12T18:15:10;22.91;67.10
57709;SHT35;42558;52.388;13.390;2023-09-12T18:17:42;22.77;67.69
57709;SHT35;42558;52.388;13.390;2023-09-12T18:20:13;22.66;68.03
57709;SHT35;42558;52.388;13.390;2023-09-12T18:22:44;22.53;68.28
57709;SHT35;42558;52.388;13.390;2023-09-12T18:25:14;22.47;68.24
57709;SHT35;42558;52.388;13.390;2023-09-12T18:27:45;22.47;68.30
57709;SHT35;42558;52.388;13.390;2023-09-12T18:30:15;22.43;68.71
57709;SHT35;42558;52.388;13.390;2023-09-12T18:32:44;22.35;68.85
57709;SHT35;42558;52.388;13.390;2023-09-12T18:35:14;22.26;69.26
57709;SHT35;42558;52.388;13.390;2023-09-12T18:37:50;22.13;69.78
57709;SHT35;42558;52.388;13.390;2023-09-12T18:40:22;22.02;70.53
57709;SHT35;42558;52.388;13.390;2023-09-12T18:42:52;21.91;70.74
57709;SHT35;42558;52.388;13.390;2023-09-12T18:45:22;21.87;70.81
57709;SHT35;42558;52.388;13.390;2023-09-12T18:47:53;21.82;71.06
57709;SHT35;42558;52.388;13.390;2023-09-12T18:50:23;21.77;71.24
57709;SHT35;42558;52.388;13.390;2023-09-12T18:52:53;21.72;71.36
57709;SHT35;42558;52.388;13.390;2023-09-12T18:55:24;21.65;71.63
57709;SHT35;42558;52.388;13.390;2023-09-12T18:57:55;21.59;71.82
57709;SHT35;42558;52.388;13.390;2023-09-12T19:00:26;21.50;71.99
57709;SHT35;42558;52.388;13.390;2023-09-12T19:02:55;21.42;72.32
57709;SHT35;42558;52.388;13.390;2023-09-12T19:05:24;21.36;72.75
57709;SHT35;42558;52.388;13.390;2023-09-12T19:07:53;21.31;72.40
57709;SHT35;42558;52.388;13.390;2023-09-12T19:10:21;21.36;72.17
57709;SHT35;42558;52.388;13.390;2023-09-12T19:12:49;21.28;72.52
57709;SHT35;42558;52.388;13.390;2023-09-12T19:15:18;21.21;72.86
57709;SHT35;42558;52.388;13.390;2023-09-12T19:17:46;21.16;73.08
57709;SHT35;42558;52.388;13.390;2023-09-12T19:20:14;21.13;72.93
57709;SHT35;42558;52.388;13.390;2023-09-12T19:22:43;21.15;72.57
57709;SHT35;42558;52.388;13.390;2023-09-12T19:25:11;21.14;72.60
57709;SHT35;42558;52.388;13.390;2023-09-12T19:27:40;21.11;72.63
57709;SHT35;42558;52.388;13.390;2023-09-12T19:30:08;21.13;72.40
57709;SHT35;42558;52.388;13.390;2023-09-12T19:32:42;21.11;72.17
57709;SHT35;42558;52.388;13.390;2023-09-12T19:35:12;21.10;72.27
57709;SHT35;42558;52.388;13.390;2023-09-12T19:37:43;21.04;72.26
57709;SHT35;42558;52.388;13.390;2023-09-12T19:40:15;20.98;72.40
57709;SHT35;42558;52.388;13.390;2023-09-12T19:42:47;20.94;72.68
57709;SHT35;42558;52.388;13.390;2023-09-12T19:45:17;20.87;72.90
57709;SHT35;42558;52.388;13.390;2023-09-12T19:47:47;20.84;73.04
57709;SHT35;42558;52.388;13.390;2023-09-12T19:50:29;20.79;73.18
57709;SHT35;42558;52.388;13.390;2023-09-12T19:53:02;20.74;73.32